createdAt,value
2018-02-16T00:00:03.279Z,0.80
2018-02-16T00:02:32.342Z,0.70
2018-02-16T00:05:00.612Z,0.90
2018-02-16T00:07:28.905Z,0.60
2018-02-16T00:09:57.185Z,0.60
2018-02-16T00:12:25.473Z,0.60
2018-02-16T00:14:54.503Z,0.60
2018-02-16T00:17:22.786Z,0.70
2018-02-16T00:19:51.078Z,0.50
2018-02-16T00:22:19.365Z,0.70
2018-02-16T00:24:47.633Z,0.70
2018-02-16T00:27:15.916Z,0.60
2018-02-16T00:29:44.188Z,0.60
2018-02-16T00:32:12.486Z,0.70
2018-02-16T00:34:40.752Z,0.60
2018-02-16T00:37:09.787Z,1.00
2018-02-16T00:39:38.063Z,0.50
2018-02-16T00:42:06.339Z,0.70
2018-02-16T00:44:34.603Z,0.50
2018-02-16T00:47:02.873Z,0.60
2018-02-16T00:49:31.153Z,0.60
2018-02-16T00:51:59.416Z,0.60
2018-02-16T00:54:27.697Z,0.60
2018-02-16T00:56:56.012Z,0.60
2018-02-16T00:59:24.307Z,0.60
2018-02-16T01:01:52.581Z,0.60
2018-02-16T01:04:20.861Z,0.60
2018-02-16T01:06:49.116Z,0.60
2018-02-16T01:09:18.164Z,0.50
2018-02-16T01:11:46.429Z,0.80
2018-02-16T01:14:15.606Z,0.50
2018-02-16T01:16:43.878Z,0.50
2018-02-16T01:19:12.149Z,0.70
2018-02-16T01:21:40.416Z,0.70
2018-02-16T01:24:08.692Z,0.50
2018-02-16T01:26:36.962Z,0.80
2018-02-16T01:29:05.999Z,0.50
2018-02-16T01:31:34.268Z,0.40
2018-02-16T01:34:02.539Z,0.50
2018-02-16T01:36:31.573Z,0.50
2018-02-16T01:38:59.865Z,0.40
2018-02-16T01:41:28.149Z,0.50
2018-02-16T01:43:56.448Z,0.50
2018-02-16T01:46:24.735Z,0.50
2018-02-16T01:48:53.058Z,0.50
2018-02-16T01:51:21.321Z,0.50
2018-02-16T01:53:49.604Z,0.60
2018-02-16T01:56:17.878Z,0.60
2018-02-16T01:58:46.176Z,0.60
2018-02-16T02:01:14.445Z,0.50
2018-02-16T02:03:43.510Z,0.50
2018-02-16T02:06:11.788Z,0.80
2018-02-16T02:08:40.084Z,0.60
2018-02-16T02:11:08.355Z,0.60
2018-02-16T02:13:36.650Z,0.60
2018-02-16T02:16:04.924Z,0.60
2018-02-16T02:18:36.144Z,0.90
2018-02-16T02:21:05.193Z,0.60
2018-02-16T02:23:33.470Z,0.50
2018-02-16T02:26:01.756Z,0.80
2018-02-16T02:28:30.048Z,0.70
2018-02-16T02:30:58.326Z,0.50
2018-02-16T02:33:26.610Z,0.50
2018-02-16T02:35:54.889Z,0.50
2018-02-16T02:38:23.174Z,0.50
2018-02-16T02:40:52.199Z,0.50
2018-02-16T02:43:20.497Z,0.70
2018-02-16T02:45:48.773Z,0.40
2018-02-16T02:48:17.040Z,0.40
2018-02-16T02:50:46.068Z,0.40
2018-02-16T02:53:14.936Z,0.20
2018-02-16T02:55:43.202Z,0.30
2018-02-16T02:58:11.484Z,0.30
2018-02-16T03:00:39.765Z,0.30
2018-02-16T03:03:08.032Z,0.30
2018-02-16T03:05:36.299Z,0.10
2018-02-16T03:08:04.571Z,0.00
2018-02-16T03:10:33.605Z,0.00
2018-02-16T03:13:01.880Z,-0.10
2018-02-16T03:15:30.165Z,0.00
2018-02-16T03:17:59.196Z,0.00
2018-02-16T03:20:28.236Z,0.10
2018-02-16T03:22:56.521Z,0.10
2018-02-16T03:25:24.794Z,0.10
2018-02-16T03:27:53.056Z,0.30
2018-02-16T03:30:21.333Z,0.10
2018-02-16T03:32:49.610Z,0.50
2018-02-16T03:35:18.636Z,0.30
2018-02-16T03:37:46.908Z,0.30
2018-02-16T03:40:15.956Z,0.30
2018-02-16T03:42:44.233Z,0.20
2018-02-16T03:45:12.500Z,0.30
2018-02-16T03:47:40.784Z,0.30
2018-02-16T03:50:09.828Z,0.40
2018-02-16T03:52:38.110Z,0.20
2018-02-16T03:55:06.392Z,0.30
2018-02-16T03:57:34.657Z,0.30
2018-02-16T04:00:03.693Z,0.60
2018-02-16T04:02:31.964Z,0.50
2018-02-16T04:05:00.273Z,0.20
2018-02-16T04:07:28.537Z,0.30
2018-02-16T04:09:56.815Z,0.30
2018-02-16T04:12:25.848Z,0.30
2018-02-16T04:14:54.133Z,0.20
2018-02-16T04:17:22.440Z,0.30
2018-02-16T04:19:50.722Z,0.30
2018-02-16T04:22:19.766Z,0.30
2018-02-16T04:24:48.053Z,0.20
2018-02-16T04:27:16.319Z,0.30
2018-02-16T04:29:44.592Z,0.30
2018-02-16T04:32:13.424Z,0.40
2018-02-16T04:34:41.700Z,0.40
2018-02-16T04:37:10.003Z,0.40
2018-02-16T04:39:38.282Z,0.40
2018-02-16T04:42:06.552Z,0.30
2018-02-16T04:44:34.828Z,0.30
2018-02-16T04:47:03.098Z,0.30
2018-02-16T04:49:32.141Z,0.40
2018-02-16T04:52:00.428Z,0.30
2018-02-16T04:54:28.723Z,0.30
2018-02-16T04:56:56.988Z,0.30
2018-02-16T04:59:25.264Z,0.30
2018-02-16T05:01:53.541Z,0.20
2018-02-16T05:04:21.812Z,0.20
2018-02-16T05:06:50.854Z,0.20
2018-02-16T05:09:19.900Z,0.20
2018-02-16T05:11:48.200Z,0.30
2018-02-16T05:14:16.463Z,0.20
2018-02-16T05:16:44.724Z,0.40
2018-02-16T05:19:13.028Z,0.20
2018-02-16T05:21:41.306Z,0.30
2018-02-16T05:24:09.583Z,0.20
2018-02-16T05:26:37.851Z,0.10
2018-02-16T05:29:06.901Z,0.20
2018-02-16T05:31:38.458Z,0.00
2018-02-16T05:34:06.741Z,0.10
2018-02-16T05:36:35.004Z,0.10
2018-02-16T05:39:04.058Z,0.10
2018-02-16T05:41:32.319Z,0.10
2018-02-16T05:44:00.586Z,0.40
2018-02-16T05:46:29.629Z,0.10
2018-02-16T05:48:57.914Z,0.10
2018-02-16T05:51:26.189Z,0.00
2018-02-16T05:53:54.465Z,0.10
2018-02-16T05:56:22.740Z,0.40
2018-02-16T05:58:51.805Z,0.20
2018-02-16T06:01:20.080Z,0.40
2018-02-16T06:03:48.380Z,0.50
2018-02-16T06:06:16.647Z,0.20
2018-02-16T06:08:44.927Z,0.20
2018-02-16T06:11:13.225Z,0.20
2018-02-16T06:13:41.503Z,0.20
2018-02-16T06:16:09.792Z,0.30
2018-02-16T06:18:38.059Z,0.30
2018-02-16T06:21:07.107Z,0.40
2018-02-16T06:23:35.384Z,0.20
2018-02-16T06:26:03.668Z,0.50
2018-02-16T06:28:31.953Z,0.20
2018-02-16T06:31:00.309Z,0.40
2018-02-16T06:33:28.539Z,0.30
2018-02-16T06:35:56.832Z,0.40
2018-02-16T06:38:25.891Z,0.50
2018-02-16T06:40:54.185Z,0.70
2018-02-16T06:43:23.223Z,0.50
2018-02-16T06:45:51.501Z,0.80
2018-02-16T06:48:19.790Z,0.50
2018-02-16T06:50:48.080Z,0.50
2018-02-16T06:53:16.370Z,0.50
2018-02-16T06:55:44.655Z,0.50
2018-02-16T06:58:12.932Z,0.50
2018-02-16T07:00:41.992Z,0.40
2018-02-16T07:03:10.264Z,0.50
2018-02-16T07:05:38.554Z,0.80
2018-02-16T07:08:06.833Z,0.50
2018-02-16T07:10:35.825Z,0.70
2018-02-16T07:13:04.138Z,1.00
2018-02-16T07:15:32.416Z,1.00
2018-02-16T07:18:00.693Z,0.70
2018-02-16T07:20:29.424Z,0.60
2018-02-16T07:22:57.696Z,0.80
2018-02-16T07:25:25.980Z,0.70
2018-02-16T07:27:54.267Z,0.80
2018-02-16T07:30:22.541Z,0.80
2018-02-16T07:32:50.817Z,0.80
2018-02-16T07:35:19.873Z,0.90
2018-02-16T07:37:48.142Z,1.10
2018-02-16T07:40:16.456Z,0.80
2018-02-16T07:42:44.727Z,0.90
2018-02-16T07:45:13.009Z,0.90
2018-02-16T07:47:41.288Z,0.90
2018-02-16T07:50:39.603Z,0.80
2018-02-16T07:53:07.879Z,0.90
2018-02-16T07:55:36.165Z,1.00
2018-02-16T07:58:04.431Z,0.90
2018-02-16T08:00:33.476Z,0.80
2018-02-16T08:03:01.776Z,0.70
2018-02-16T08:05:30.944Z,0.80
2018-02-16T08:07:59.981Z,0.80
2018-02-16T08:10:28.258Z,0.70
2018-02-16T08:12:56.523Z,0.80
2018-02-16T08:15:25.564Z,0.80
2018-02-16T08:17:53.826Z,0.80
2018-02-16T08:20:22.104Z,0.80
2018-02-16T08:22:51.142Z,0.80
2018-02-16T08:25:19.420Z,0.80
2018-02-16T08:27:47.921Z,0.90
2018-02-16T08:30:16.187Z,0.80
2018-02-16T08:32:44.456Z,0.80
2018-02-16T08:35:13.495Z,0.70
2018-02-16T08:37:42.585Z,0.70
2018-02-16T08:40:10.864Z,0.60
2018-02-16T08:42:39.896Z,0.80
2018-02-16T08:45:08.178Z,0.60
2018-02-16T08:47:36.441Z,0.60
2018-02-16T08:50:05.489Z,0.70
2018-02-16T08:52:33.757Z,0.70
2018-02-16T08:55:02.041Z,0.70
2018-02-16T08:57:30.321Z,1.00
2018-02-16T08:59:58.647Z,0.60
2018-02-16T09:02:26.907Z,0.70
2018-02-16T09:04:55.195Z,0.80
2018-02-16T09:07:24.216Z,0.90
2018-02-16T09:09:52.494Z,1.00
2018-02-16T09:12:21.421Z,0.90
2018-02-16T09:14:49.692Z,0.90
2018-02-16T09:17:17.952Z,1.00
2018-02-16T09:19:46.245Z,0.80
2018-02-16T09:22:15.272Z,1.00
2018-02-16T09:24:43.536Z,1.30
2018-02-16T09:27:11.857Z,1.20
2018-02-16T09:29:40.127Z,0.90
2018-02-16T09:32:09.156Z,1.10
2018-02-16T09:34:37.415Z,1.30
2018-02-16T09:37:06.454Z,1.20
2018-02-16T09:39:43.103Z,1.00
2018-02-16T09:42:12.153Z,1.30
2018-02-16T09:44:43.356Z,1.50
2018-02-16T09:47:11.640Z,1.40
2018-02-16T09:49:39.909Z,1.60
2018-02-16T09:52:08.180Z,1.40
2018-02-16T09:54:36.461Z,1.50
2018-02-16T09:57:04.744Z,1.50
2018-02-16T09:59:33.004Z,1.50
2018-02-16T10:02:01.283Z,1.50
2018-02-16T10:04:30.310Z,1.70
2018-02-16T10:06:58.610Z,1.80
2018-02-16T10:09:26.877Z,1.70
2018-02-16T10:11:55.997Z,1.70
2018-02-16T10:14:24.313Z,1.70
2018-02-16T10:16:53.306Z,1.70
2018-02-16T10:19:21.587Z,1.80
2018-02-16T10:21:49.868Z,1.70
2018-02-16T10:24:18.127Z,1.60
2018-02-16T10:26:46.396Z,1.50
2018-02-16T10:29:14.662Z,1.60
2018-02-16T10:31:42.929Z,1.60
2018-02-16T10:34:11.193Z,1.90
2018-02-16T10:36:40.238Z,1.70
2018-02-16T10:39:08.505Z,1.70
2018-02-16T10:41:36.785Z,1.60
2018-02-16T10:44:05.816Z,1.70
2018-02-16T10:46:34.096Z,1.80
2018-02-16T10:49:02.380Z,1.60
2018-02-16T10:51:30.656Z,1.60
2018-02-16T10:53:59.675Z,1.70
2018-02-16T10:56:27.950Z,1.80
2018-02-16T10:58:56.215Z,1.60
2018-02-16T11:01:24.508Z,1.80
2018-02-16T11:03:58.180Z,1.60
2018-02-16T11:06:32.085Z,1.90
2018-02-16T11:09:05.912Z,1.60
2018-02-16T11:11:34.190Z,2.00
2018-02-16T11:14:02.460Z,1.40
2018-02-16T11:16:30.736Z,1.50
2018-02-16T11:19:00.461Z,1.70
2018-02-16T11:21:29.504Z,1.90
2018-02-16T11:23:57.778Z,2.10
2018-02-16T11:26:26.687Z,2.10
2018-02-16T11:28:54.967Z,2.30
2018-02-16T11:31:23.300Z,2.40
2018-02-16T11:33:51.566Z,2.60
2018-02-16T11:36:19.840Z,2.60
2018-02-16T11:38:48.105Z,2.80
2018-02-16T11:41:17.148Z,3.20
2018-02-16T11:43:45.419Z,3.20
2018-02-16T11:46:13.719Z,2.90
2018-02-16T11:48:41.981Z,2.70
2018-02-16T11:51:11.029Z,2.50
2018-02-16T11:53:39.292Z,2.50
2018-02-16T11:56:07.583Z,2.40
2018-02-16T11:58:35.847Z,2.40
2018-02-16T12:01:04.892Z,2.70
2018-02-16T12:03:33.156Z,2.40
2018-02-16T12:06:01.432Z,2.50
2018-02-16T12:08:30.478Z,2.80
2018-02-16T12:10:58.750Z,2.70
2018-02-16T12:13:27.009Z,3.10
2018-02-16T12:15:55.300Z,3.00
2018-02-16T12:18:23.554Z,2.80
2018-02-16T12:20:51.828Z,2.80
2018-02-16T12:23:20.104Z,3.10
2018-02-16T12:25:48.365Z,3.20
2018-02-16T12:28:17.391Z,3.20
2018-02-16T12:30:45.666Z,3.20
2018-02-16T12:33:13.932Z,3.20
2018-02-16T12:35:42.205Z,3.20
2018-02-16T12:38:10.467Z,3.10
2018-02-16T12:40:38.731Z,2.80
2018-02-16T12:43:07.009Z,2.70
2018-02-16T12:45:35.271Z,2.80
2018-02-16T12:48:03.576Z,2.60
2018-02-16T12:50:31.803Z,2.30
2018-02-16T12:53:00.086Z,2.20
2018-02-16T12:55:28.356Z,2.00
2018-02-16T12:57:56.629Z,2.00
2018-02-16T13:00:25.663Z,2.00
2018-02-16T13:02:54.764Z,1.80
2018-02-16T13:05:23.029Z,1.80
2018-02-16T13:07:52.063Z,2.30
2018-02-16T13:10:20.324Z,2.30
2018-02-16T13:12:49.366Z,2.70
2018-02-16T13:15:17.615Z,2.70
2018-02-16T13:17:46.647Z,3.30
2018-02-16T13:20:14.903Z,3.30
2018-02-16T13:22:43.945Z,3.50
2018-02-16T13:25:12.208Z,3.80
2018-02-16T13:27:41.236Z,3.20
2018-02-16T13:30:09.496Z,3.40
2018-02-16T13:32:38.536Z,3.10
2018-02-16T13:35:06.791Z,3.50
2018-02-16T13:37:35.829Z,3.00
2018-02-16T13:40:04.600Z,3.00
2018-02-16T13:42:33.636Z,2.70
2018-02-16T13:45:01.910Z,2.70
2018-02-16T13:47:30.181Z,2.70
2018-02-16T13:49:59.237Z,2.60
2018-02-16T13:52:27.479Z,2.70
2018-02-16T13:54:56.502Z,2.30
2018-02-16T13:57:24.759Z,2.40
2018-02-16T13:59:53.028Z,2.20
2018-02-16T14:02:22.283Z,2.00
2018-02-16T14:04:50.559Z,1.90
2018-02-16T14:07:19.596Z,1.80
2018-02-16T14:09:47.857Z,1.90
2018-02-16T14:12:16.901Z,1.60
2018-02-16T14:14:45.170Z,1.80
2018-02-16T14:17:13.437Z,1.50
2018-02-16T14:19:42.470Z,1.50
2018-02-16T14:22:10.753Z,1.40
2018-02-16T14:24:39.034Z,1.50
2018-02-16T14:27:07.317Z,1.60
2018-02-16T14:29:35.584Z,1.90
2018-02-16T14:32:03.867Z,2.00
2018-02-16T14:34:32.137Z,2.20
2018-02-16T14:37:00.408Z,2.10
2018-02-16T14:39:28.685Z,2.60
2018-02-16T14:42:06.845Z,2.80
2018-02-16T14:44:35.113Z,3.10
2018-02-16T14:47:03.393Z,3.60
2018-02-16T14:49:31.662Z,3.30
2018-02-16T14:51:59.928Z,3.30
2018-02-16T14:54:28.951Z,3.10
2018-02-16T14:56:57.224Z,3.30
2018-02-16T14:59:26.244Z,3.10
2018-02-16T15:01:54.532Z,3.30
2018-02-16T15:04:23.035Z,3.20
2018-02-16T15:06:51.316Z,3.20
2018-02-16T15:09:19.777Z,3.20
2018-02-16T15:11:48.037Z,2.80
2018-02-16T15:14:16.308Z,2.50
2018-02-16T15:16:44.572Z,2.50
2018-02-16T15:19:13.609Z,1.90
2018-02-16T15:21:41.874Z,2.20
2018-02-16T15:24:10.172Z,1.70
2018-02-16T15:26:38.426Z,1.60
2018-02-16T15:29:07.460Z,1.50
2018-02-16T15:31:35.733Z,1.50
2018-02-16T15:34:04.019Z,1.60
2018-02-16T15:36:32.279Z,1.70
2018-02-16T15:39:00.549Z,1.80
2018-02-16T15:41:28.895Z,1.70
2018-02-16T15:43:57.155Z,1.60
2018-02-16T15:46:25.421Z,1.60
2018-02-16T15:48:53.689Z,1.90
2018-02-16T15:51:21.954Z,1.60
2018-02-16T15:53:50.225Z,1.60
2018-02-16T15:56:19.257Z,1.60
2018-02-16T15:58:47.525Z,1.90
2018-02-16T16:01:15.788Z,2.00
2018-02-16T16:03:44.824Z,1.70
2018-02-16T16:06:13.150Z,1.80
2018-02-16T16:08:42.136Z,1.90
2018-02-16T16:11:10.392Z,2.00
2018-02-16T16:13:39.449Z,1.70
2018-02-16T16:16:07.714Z,1.70
2018-02-16T16:18:35.993Z,1.60
2018-02-16T16:21:04.272Z,1.40
2018-02-16T16:23:32.553Z,1.20
2018-02-16T16:26:01.585Z,1.00
2018-02-16T16:28:31.812Z,1.30
2018-02-16T16:31:00.086Z,1.20
2018-02-16T16:33:29.137Z,0.80
2018-02-16T16:35:57.405Z,1.00
2018-02-16T16:38:25.685Z,0.70
2018-02-16T16:40:53.966Z,0.60
2018-02-16T16:43:22.237Z,0.50
2018-02-16T16:45:51.271Z,0.40
2018-02-16T16:48:19.534Z,0.30
2018-02-16T16:50:48.557Z,0.10
2018-02-16T16:53:16.819Z,0.10
2018-02-16T16:55:45.851Z,-0.10
2018-02-16T16:58:14.129Z,0.00
2018-02-16T17:00:42.392Z,-0.20
2018-02-16T17:03:10.660Z,-0.30
2018-02-16T17:05:38.934Z,-0.30
2018-02-16T17:08:07.208Z,-0.20
2018-02-16T17:10:35.460Z,-0.20
2018-02-16T17:13:04.555Z,-0.30
2018-02-16T17:15:32.785Z,-0.20
2018-02-16T17:18:01.072Z,-0.30
2018-02-16T17:20:29.327Z,-0.10
2018-02-16T17:22:58.364Z,-0.10
2018-02-16T17:25:27.355Z,-0.10
2018-02-16T17:27:56.397Z,0.30
2018-02-16T17:30:24.660Z,0.00
2018-02-16T17:32:52.954Z,0.00
2018-02-16T17:35:21.215Z,0.00
2018-02-16T17:37:50.254Z,-0.20
2018-02-16T17:40:18.536Z,0.20
2018-02-16T17:42:47.589Z,-0.10
2018-02-16T17:45:16.402Z,-0.10
2018-02-16T17:47:44.667Z,-0.40
2018-02-16T17:50:22.853Z,-0.50
2018-02-16T17:52:51.135Z,-0.60
2018-02-16T17:55:19.409Z,-0.60
2018-02-16T17:57:48.449Z,-0.60
2018-02-16T18:00:16.718Z,-0.50
2018-02-16T18:02:44.993Z,-0.60
2018-02-16T18:05:14.024Z,-0.40
2018-02-16T18:07:42.303Z,-0.10
2018-02-16T18:10:10.569Z,-0.40
2018-02-16T18:12:39.605Z,-0.30
2018-02-16T18:15:07.892Z,-0.10
2018-02-16T18:17:36.152Z,-0.30
2018-02-16T18:20:05.220Z,-0.30
2018-02-16T18:22:33.489Z,-0.10
2018-02-16T18:25:01.778Z,-0.20
2018-02-16T18:27:30.057Z,-0.30
2018-02-16T18:29:58.323Z,-0.20
2018-02-16T18:32:26.613Z,-0.30
2018-02-16T18:34:54.878Z,-0.30
2018-02-16T18:37:23.137Z,-0.30
2018-02-16T18:39:51.413Z,-0.20
2018-02-16T18:42:19.675Z,-0.30
2018-02-16T18:44:47.961Z,-0.30
2018-02-16T18:47:16.233Z,-0.30
2018-02-16T18:49:45.283Z,-0.20
2018-02-16T18:52:13.540Z,0.10
2018-02-16T18:54:41.808Z,-0.20
2018-02-16T18:57:10.837Z,-0.20
2018-02-16T18:59:39.867Z,-0.30
2018-02-16T19:02:08.143Z,-0.20
2018-02-16T19:04:36.428Z,-0.30
2018-02-16T19:07:05.541Z,-0.40
2018-02-16T19:09:33.821Z,-0.20
2018-02-16T19:12:02.102Z,-0.30
2018-02-16T19:14:31.151Z,-0.20
2018-02-16T19:16:59.462Z,-0.50
2018-02-16T19:19:27.695Z,-0.50
2018-02-16T19:21:55.969Z,-0.20
2018-02-16T19:24:25.137Z,-0.40
2018-02-16T19:26:53.545Z,-0.60
2018-02-16T19:29:22.700Z,-0.50
2018-02-16T19:31:51.129Z,-0.40
2018-02-16T19:34:19.902Z,-0.70
2018-02-16T19:36:48.265Z,-0.80
2018-02-16T19:39:17.785Z,-1.00
2018-02-16T19:41:46.505Z,-0.80
2018-02-16T19:44:14.857Z,-1.00
2018-02-16T19:46:43.682Z,-1.10
2018-02-16T19:49:13.305Z,-1.00
2018-02-16T19:51:42.412Z,-1.10
2018-02-16T19:54:10.702Z,-1.30
2018-02-16T19:56:38.981Z,-1.20
2018-02-16T19:59:08.026Z,-0.80
2018-02-16T20:01:36.287Z,-0.70
2018-02-16T20:04:04.589Z,-1.00
2018-02-16T20:06:32.848Z,-1.10
2018-02-16T20:09:01.897Z,-1.00
2018-02-16T20:11:31.079Z,-0.90
2018-02-16T20:13:59.654Z,-1.10
2018-02-16T20:16:27.977Z,-1.10
2018-02-16T20:18:56.253Z,-1.00
2018-02-16T20:21:24.816Z,-1.00
2018-02-16T20:23:54.056Z,-0.80
2018-02-16T20:26:22.332Z,-0.90
2018-02-16T20:28:50.617Z,-1.10
2018-02-16T20:31:19.861Z,-1.50
2018-02-16T20:33:48.177Z,-1.30
2018-02-16T20:36:16.461Z,-1.50
2018-02-16T20:38:44.752Z,-1.70
2018-02-16T20:41:13.322Z,-1.60
2018-02-16T20:43:41.660Z,-1.90
2018-02-16T20:46:09.940Z,-2.30
2018-02-16T20:48:38.364Z,-2.40
2018-02-16T20:51:06.662Z,-2.50
2018-02-16T20:53:35.014Z,-2.70
2018-02-16T20:56:04.082Z,-2.80
2018-02-16T20:58:32.352Z,-2.70
2018-02-16T21:01:00.638Z,-2.90
2018-02-16T21:03:28.988Z,-3.30
2018-02-16T21:05:57.278Z,-3.30
2018-02-16T21:08:25.600Z,-3.00
2018-02-16T21:10:53.879Z,-3.10
2018-02-16T21:13:22.908Z,-3.60
2018-02-16T21:15:51.189Z,-3.30
2018-02-16T21:18:19.466Z,-3.60
2018-02-16T21:20:48.508Z,-3.60
2018-02-16T21:23:17.535Z,-3.80
2018-02-16T21:25:45.815Z,-3.80
2018-02-16T21:28:14.079Z,-3.70
2018-02-16T21:30:42.395Z,-3.90
2018-02-16T21:33:10.664Z,-3.90
2018-02-16T21:35:38.934Z,-3.80
2018-02-16T21:38:07.201Z,-3.70
2018-02-16T21:40:36.836Z,-3.40
2018-02-16T21:43:05.108Z,-3.50
2018-02-16T21:45:34.152Z,-3.20
2018-02-16T21:48:02.430Z,-3.40
2018-02-16T21:50:30.695Z,-3.30
2018-02-16T21:52:59.737Z,-3.60
2018-02-16T21:55:28.007Z,-3.30
2018-02-16T21:57:56.277Z,-3.30
2018-02-16T22:00:26.228Z,-3.90
2018-02-16T22:02:54.501Z,-3.90
2018-02-16T22:05:23.544Z,-3.70
2018-02-16T22:07:51.812Z,-3.90
2018-02-16T22:10:20.080Z,-3.90
2018-02-16T22:12:49.105Z,-4.30
2018-02-16T22:15:17.376Z,-4.30
2018-02-16T22:17:46.413Z,-4.50
2018-02-16T22:20:14.682Z,-4.30
2018-02-16T22:22:42.951Z,-4.50
2018-02-16T22:25:12.036Z,-4.60
2018-02-16T22:27:40.255Z,-4.50
2018-02-16T22:30:09.291Z,-4.60
2018-02-16T22:32:37.555Z,-4.60
2018-02-16T22:35:05.836Z,-4.80
2018-02-16T22:37:34.864Z,-5.20
2018-02-16T22:40:03.153Z,-4.90
2018-02-16T22:42:31.415Z,-4.90
2018-02-16T22:45:00.461Z,-5.20
2018-02-16T22:47:28.727Z,-5.40
2018-02-16T22:49:56.992Z,-5.40
2018-02-16T22:52:27.958Z,-5.50
2018-02-16T22:54:56.241Z,-5.50
2018-02-16T22:57:25.276Z,-5.50
2018-02-16T22:59:53.557Z,-5.60
2018-02-16T23:02:21.824Z,-5.50
2018-02-16T23:04:50.864Z,-5.50
2018-02-16T23:07:19.144Z,-5.60
2018-02-16T23:09:48.225Z,-5.80
2018-02-16T23:12:17.257Z,-5.70
2018-02-16T23:14:45.550Z,-5.70
2018-02-16T23:17:13.803Z,-5.60
2018-02-16T23:19:42.833Z,-5.60
2018-02-16T23:22:11.095Z,-5.60
2018-02-16T23:24:40.140Z,-5.60
2018-02-16T23:27:08.401Z,-5.60
2018-02-16T23:29:37.441Z,-5.50
2018-02-16T23:32:05.712Z,-5.50
2018-02-16T23:34:33.987Z,-5.40
2018-02-16T23:37:03.017Z,-5.10
2018-02-16T23:39:31.301Z,-5.40
2018-02-16T23:41:59.568Z,-5.30
2018-02-16T23:44:28.546Z,-5.00
2018-02-16T23:46:56.829Z,-5.20
2018-02-16T23:49:25.105Z,-4.90
2018-02-16T23:51:54.146Z,-5.20
2018-02-16T23:54:22.406Z,-5.20
2018-02-16T23:56:50.692Z,-5.30
2018-02-16T23:59:19.715Z,-5.00
